createdAt,value
2022-12-05T00:01:49.536Z,1.63
2022-12-05T00:04:17.691Z,1.62
2022-12-05T00:06:45.740Z,1.61
2022-12-05T00:09:14.231Z,1.63
2022-12-05T00:11:44.861Z,1.63
2022-12-05T00:14:13.442Z,1.62
2022-12-05T00:16:42.684Z,1.60
2022-12-05T00:19:15.153Z,1.67
2022-12-05T00:21:44.103Z,1.67
2022-12-05T00:24:15.544Z,1.65
2022-12-05T00:26:44.279Z,1.64
2022-12-05T00:29:13.026Z,1.61
2022-12-05T00:31:41.372Z,1.62
2022-12-05T00:34:09.814Z,1.59
2022-12-05T00:36:37.896Z,1.55
2022-12-05T00:39:09.235Z,1.52
2022-12-05T00:41:38.202Z,1.51
2022-12-05T00:44:06.479Z,1.53
2022-12-05T00:46:36.438Z,1.52
2022-12-05T00:49:06.657Z,1.52
2022-12-05T00:51:37.864Z,1.49
2022-12-05T00:54:12.648Z,1.46
2022-12-05T00:56:41.385Z,1.42
2022-12-05T00:59:14.886Z,1.47
2022-12-05T01:01:44.747Z,1.47
2022-12-05T01:04:18.509Z,1.45
2022-12-05T01:06:47.802Z,1.44
2022-12-05T01:09:18.521Z,1.45
2022-12-05T01:11:47.024Z,1.46
2022-12-05T01:14:17.982Z,1.45
2022-12-05T01:16:48.481Z,1.44
2022-12-05T01:19:23.733Z,1.46
2022-12-05T01:21:52.210Z,1.46
2022-12-05T01:24:21.721Z,1.46
2022-12-05T01:26:49.691Z,1.45
2022-12-05T01:29:19.562Z,1.41
2022-12-05T01:31:48.135Z,1.40
2022-12-05T01:34:17.905Z,1.39
2022-12-05T01:36:46.801Z,1.38
2022-12-05T01:39:15.583Z,1.36
2022-12-05T01:41:46.464Z,1.37
2022-12-05T01:44:14.389Z,1.35
2022-12-05T01:46:50.555Z,1.31
2022-12-05T01:49:35.400Z,1.30
2022-12-05T01:52:10.592Z,1.30
2022-12-05T01:54:39.243Z,1.28
2022-12-05T01:57:11.737Z,1.27
2022-12-05T01:59:45.449Z,1.28
2022-12-05T02:02:13.876Z,1.26
2022-12-05T02:04:52.011Z,1.29
2022-12-05T02:07:19.988Z,1.37
2022-12-05T02:09:51.119Z,1.37
2022-12-05T02:12:21.654Z,1.34
2022-12-05T02:15:13.256Z,1.30
2022-12-05T02:18:10.230Z,1.32
2022-12-05T02:20:50.484Z,1.37
2022-12-05T02:23:36.537Z,1.40
2022-12-05T02:26:34.456Z,1.33
2022-12-05T02:29:08.254Z,1.31
2022-12-05T02:31:57.914Z,1.28
2022-12-05T02:34:34.301Z,1.27
2022-12-05T02:37:08.108Z,1.30
2022-12-05T02:39:46.631Z,1.30
2022-12-05T02:42:21.876Z,1.32
2022-12-05T02:45:14.828Z,1.36
2022-12-05T02:47:47.608Z,1.40
2022-12-05T02:50:21.007Z,1.40
2022-12-05T02:52:52.539Z,1.41
2022-12-05T02:55:22.404Z,1.42
2022-12-05T02:57:56.282Z,1.45
2022-12-05T03:00:24.151Z,1.44
2022-12-05T03:02:56.420Z,1.44
2022-12-05T03:06:05.662Z,1.43
2022-12-05T03:08:45.113Z,1.41
2022-12-05T03:11:14.094Z,1.40
2022-12-05T03:13:46.432Z,1.37
2022-12-05T03:16:20.313Z,1.32
2022-12-05T03:18:54.809Z,1.31
2022-12-05T03:21:34.261Z,1.30
2022-12-05T03:24:11.619Z,1.27
2022-12-05T03:27:05.393Z,1.27
2022-12-05T03:29:43.711Z,1.22
2022-12-05T03:32:25.090Z,1.21
2022-12-05T03:35:03.204Z,1.20
2022-12-05T03:37:40.875Z,1.17
2022-12-05T03:40:24.123Z,1.22
2022-12-05T03:43:12.682Z,1.28
2022-12-05T03:45:53.186Z,1.32
2022-12-05T03:48:39.848Z,1.33
2022-12-05T03:51:09.010Z,1.30
2022-12-05T03:53:59.788Z,1.28
2022-12-05T03:56:38.174Z,1.29
2022-12-05T03:59:12.982Z,1.28
2022-12-05T04:01:43.730Z,1.26
2022-12-05T04:04:19.804Z,1.25
2022-12-05T04:06:50.939Z,1.24
2022-12-05T04:09:24.230Z,1.21
2022-12-05T04:11:57.687Z,1.22
2022-12-05T04:14:31.383Z,1.19
2022-12-05T04:17:20.606Z,1.17
2022-12-05T04:20:29.467Z,1.16
2022-12-05T04:22:58.391Z,1.18
2022-12-05T04:25:34.908Z,1.17
2022-12-05T04:28:28.262Z,1.16
2022-12-05T04:31:08.073Z,1.15
2022-12-05T04:33:50.527Z,1.21
2022-12-05T04:36:31.085Z,1.28
2022-12-05T04:39:17.584Z,1.30
2022-12-05T04:42:00.816Z,1.30
2022-12-05T04:44:34.311Z,1.28
2022-12-05T04:47:06.103Z,1.29
2022-12-05T04:49:36.329Z,1.35
2022-12-05T04:52:09.033Z,1.31
2022-12-05T04:54:51.446Z,1.31
2022-12-05T04:57:28.631Z,1.34
2022-12-05T04:59:56.982Z,1.34
2022-12-05T05:02:34.958Z,1.34
2022-12-05T05:05:10.917Z,1.35
2022-12-05T05:07:54.072Z,1.34
2022-12-05T05:10:37.983Z,1.35
2022-12-05T05:13:05.832Z,1.29
2022-12-05T05:15:33.796Z,1.27
2022-12-05T05:18:01.903Z,1.26
2022-12-05T05:20:30.213Z,1.22
2022-12-05T05:22:58.654Z,1.18
2022-12-05T05:25:26.933Z,1.20
2022-12-05T05:27:56.950Z,1.20
2022-12-05T05:30:25.638Z,1.22
2022-12-05T05:32:53.805Z,1.16
2022-12-05T05:35:21.983Z,1.20
2022-12-05T05:37:49.848Z,1.27
2022-12-05T05:40:18.337Z,1.27
2022-12-05T05:42:48.577Z,1.29
2022-12-05T05:45:16.789Z,1.26
2022-12-05T05:47:45.516Z,1.22
2022-12-05T05:50:19.575Z,1.24
2022-12-05T05:52:49.652Z,1.24
2022-12-05T05:55:18.231Z,1.27
2022-12-05T05:57:46.924Z,1.31
2022-12-05T06:00:15.410Z,1.35
2022-12-05T06:02:44.030Z,1.36
2022-12-05T06:05:12.467Z,1.30
2022-12-05T06:07:40.636Z,1.28
2022-12-05T06:10:09.541Z,1.27
2022-12-05T06:12:37.505Z,1.25
2022-12-05T06:15:06.292Z,1.21
2022-12-05T06:17:34.262Z,1.18
2022-12-05T06:20:02.335Z,1.16
2022-12-05T06:22:30.548Z,1.11
2022-12-05T06:24:59.203Z,1.09
2022-12-05T06:27:30.137Z,1.08
2022-12-05T06:29:58.218Z,1.04
2022-12-05T06:32:29.777Z,1.02
2022-12-05T06:34:57.655Z,1.05
2022-12-05T06:37:25.738Z,1.09
2022-12-05T06:39:53.671Z,1.12
2022-12-05T06:42:22.496Z,1.11
2022-12-05T06:44:50.537Z,1.08
2022-12-05T06:47:18.712Z,1.08
2022-12-05T06:49:46.780Z,1.07
2022-12-05T06:52:14.755Z,1.10
2022-12-05T06:54:42.720Z,1.09
2022-12-05T06:57:10.797Z,1.04
2022-12-05T06:59:39.068Z,1.05
2022-12-05T07:02:08.660Z,1.09
2022-12-05T07:04:36.857Z,1.08
2022-12-05T07:07:04.909Z,1.12
2022-12-05T07:09:51.429Z,1.15
2022-12-05T07:12:20.023Z,1.28
2022-12-05T07:14:49.428Z,1.23
2022-12-05T07:17:19.431Z,1.17
2022-12-05T07:19:49.610Z,1.20
2022-12-05T07:22:19.480Z,1.23
2022-12-05T07:24:47.486Z,1.21
2022-12-05T07:27:16.127Z,1.19
2022-12-05T07:29:45.027Z,1.17
2022-12-05T07:32:12.932Z,1.16
2022-12-05T07:34:42.368Z,1.22
2022-12-05T07:37:10.465Z,1.24
2022-12-05T07:39:38.569Z,1.27
2022-12-05T07:42:06.819Z,1.27
2022-12-05T07:44:35.202Z,1.26
2022-12-05T07:47:03.177Z,1.28
2022-12-05T07:49:31.224Z,1.26
2022-12-05T07:51:59.555Z,1.24
2022-12-05T07:54:27.694Z,1.29
2022-12-05T07:56:55.662Z,1.32
2022-12-05T07:59:23.524Z,1.35
2022-12-05T08:01:52.161Z,1.37
2022-12-05T08:04:20.181Z,1.35
2022-12-05T08:06:48.050Z,1.37
2022-12-05T08:09:15.879Z,1.39
2022-12-05T08:11:48.172Z,1.39
2022-12-05T08:14:19.543Z,1.41
2022-12-05T08:16:47.731Z,1.43
2022-12-05T08:19:17.271Z,1.46
2022-12-05T08:21:45.587Z,1.47
2022-12-05T08:24:14.175Z,1.52
2022-12-05T08:26:42.176Z,1.53
2022-12-05T08:29:13.384Z,1.56
2022-12-05T08:31:47.344Z,1.58
2022-12-05T08:34:17.123Z,1.66
2022-12-05T08:36:45.720Z,1.69
2022-12-05T08:39:16.297Z,1.75
2022-12-05T08:41:45.913Z,1.72
2022-12-05T08:44:16.404Z,1.76
2022-12-05T08:46:49.611Z,1.76
2022-12-05T08:49:18.870Z,1.76
2022-12-05T08:51:46.937Z,1.79
2022-12-05T08:54:15.351Z,1.82
2022-12-05T08:56:43.478Z,1.79
2022-12-05T08:59:11.700Z,1.76
2022-12-05T09:01:40.736Z,1.73
2022-12-05T09:04:09.263Z,1.74
2022-12-05T09:06:39.450Z,1.77
2022-12-05T09:09:11.776Z,1.78
2022-12-05T09:11:46.658Z,1.77
2022-12-05T09:14:15.568Z,1.79
2022-12-05T09:16:46.816Z,1.82
2022-12-05T09:19:18.393Z,1.85
2022-12-05T09:21:46.961Z,1.86
2022-12-05T09:24:15.256Z,1.85
2022-12-05T09:26:45.146Z,1.83
2022-12-05T09:29:18.150Z,1.85
2022-12-05T09:31:48.906Z,1.87
2022-12-05T09:34:18.689Z,1.90
2022-12-05T09:36:55.614Z,1.96
2022-12-05T09:39:26.538Z,1.97
2022-12-05T09:42:18.733Z,1.96
2022-12-05T09:45:15.375Z,1.93
2022-12-05T09:47:58.085Z,1.94
2022-12-05T09:50:30.349Z,1.93
2022-12-05T09:53:07.334Z,1.93
2022-12-05T09:55:56.306Z,1.95
2022-12-05T09:58:33.146Z,1.98
2022-12-05T10:01:12.104Z,2.02
2022-12-05T10:03:48.605Z,2.05
2022-12-05T10:06:25.533Z,2.08
2022-12-05T10:08:56.655Z,2.05
2022-12-05T10:11:47.615Z,2.06
2022-12-05T10:14:37.201Z,1.98
2022-12-05T10:17:16.947Z,1.98
2022-12-05T10:19:50.002Z,1.99
2022-12-05T10:22:29.780Z,2.02
2022-12-05T10:25:04.606Z,2.01
2022-12-05T10:27:40.052Z,2.02
2022-12-05T10:30:17.806Z,2.05
2022-12-05T10:32:59.307Z,2.09
2022-12-05T10:35:33.664Z,2.15
2022-12-05T10:38:11.278Z,2.12
2022-12-05T10:40:43.250Z,2.16
2022-12-05T10:43:15.549Z,2.18
2022-12-05T10:45:48.457Z,2.16
2022-12-05T10:48:19.359Z,2.13
2022-12-05T10:50:50.448Z,2.15
2022-12-05T10:53:27.406Z,2.18
2022-12-05T10:56:28.638Z,2.17
2022-12-05T10:58:58.419Z,2.21
2022-12-05T11:01:29.354Z,2.27
2022-12-05T11:04:01.026Z,2.30
2022-12-05T11:06:31.328Z,2.34
2022-12-05T11:09:13.659Z,2.32
2022-12-05T11:11:42.117Z,2.30
2022-12-05T11:14:24.085Z,2.36
2022-12-05T11:17:00.396Z,2.40
2022-12-05T11:19:31.846Z,2.41
2022-12-05T11:22:00.862Z,2.43
2022-12-05T11:24:37.711Z,2.45
2022-12-05T11:27:17.649Z,2.46
2022-12-05T11:29:59.259Z,2.46
2022-12-05T11:32:33.457Z,2.43
2022-12-05T11:35:10.106Z,2.43
2022-12-05T11:37:51.942Z,2.45
2022-12-05T11:41:00.035Z,2.45
2022-12-05T11:43:52.883Z,2.50
2022-12-05T11:46:40.267Z,2.49
2022-12-05T11:49:46.172Z,2.48
2022-12-05T11:52:19.980Z,2.52
2022-12-05T11:55:05.131Z,2.53
2022-12-05T11:57:52.542Z,2.52
2022-12-05T12:00:29.238Z,2.42
2022-12-05T12:03:18.829Z,2.40
2022-12-05T12:06:05.636Z,2.39
2022-12-05T12:08:52.351Z,2.44
2022-12-05T12:11:47.149Z,2.50
2022-12-05T12:14:36.100Z,2.52
2022-12-05T12:17:51.808Z,2.47
2022-12-05T12:20:48.975Z,2.49
2022-12-05T12:23:51.887Z,2.53
2022-12-05T12:27:01.559Z,2.57
2022-12-05T12:30:01.409Z,2.51
2022-12-05T12:32:47.591Z,2.49
2022-12-05T12:35:29.601Z,2.51
2022-12-05T12:38:32.802Z,2.53
2022-12-05T12:41:00.753Z,2.55
2022-12-05T12:43:54.861Z,2.55
2022-12-05T12:46:29.782Z,2.53
2022-12-05T12:49:06.676Z,2.52
2022-12-05T12:51:34.937Z,2.53
2022-12-05T12:54:15.005Z,2.54
2022-12-05T12:57:03.971Z,2.61
2022-12-05T12:59:55.054Z,2.63
2022-12-05T13:02:45.223Z,2.72
2022-12-05T13:05:32.322Z,2.73
2022-12-05T13:08:28.808Z,2.67
2022-12-05T13:10:58.535Z,2.57
2022-12-05T13:13:38.789Z,2.54
2022-12-05T13:16:08.449Z,2.53
2022-12-05T13:18:36.673Z,2.51
2022-12-05T13:21:08.226Z,2.53
2022-12-05T13:23:45.947Z,2.54
2022-12-05T13:26:15.238Z,2.58
2022-12-05T13:28:52.477Z,2.59
2022-12-05T13:31:39.080Z,2.62
2022-12-05T13:34:27.173Z,2.66
2022-12-05T13:37:19.298Z,2.64
2022-12-05T13:40:11.128Z,2.59
2022-12-05T13:42:40.085Z,2.60
2022-12-05T13:45:15.437Z,2.58
2022-12-05T13:47:46.195Z,2.51
2022-12-05T13:50:41.198Z,2.48
2022-12-05T13:53:21.216Z,2.45
2022-12-05T13:56:00.340Z,2.50
2022-12-05T13:58:31.225Z,2.55
2022-12-05T14:01:46.486Z,2.58
2022-12-05T14:04:45.961Z,2.61
2022-12-05T14:07:39.016Z,2.66
2022-12-05T14:10:08.915Z,2.59
2022-12-05T14:12:49.252Z,2.58
2022-12-05T14:15:39.595Z,2.64
2022-12-05T14:18:18.418Z,2.66
2022-12-05T14:20:55.799Z,2.65
2022-12-05T14:23:39.811Z,2.70
2022-12-05T14:26:32.282Z,2.67
2022-12-05T14:29:15.474Z,2.56
2022-12-05T14:32:04.443Z,2.53
2022-12-05T14:34:36.959Z,2.50
2022-12-05T14:37:24.131Z,2.50
2022-12-05T14:39:55.397Z,2.44
2022-12-05T14:42:43.025Z,2.35
2022-12-05T14:45:37.396Z,2.34
2022-12-05T14:48:30.930Z,2.31
2022-12-05T14:51:00.776Z,2.33
2022-12-05T14:53:37.664Z,2.38
2022-12-05T14:56:21.859Z,2.43
2022-12-05T14:59:09.794Z,2.48
2022-12-05T15:01:50.093Z,2.55
2022-12-05T15:04:38.410Z,2.59
2022-12-05T15:07:14.799Z,2.61
2022-12-05T15:09:51.805Z,2.67
2022-12-05T15:12:34.648Z,2.69
2022-12-05T15:15:13.601Z,2.68
2022-12-05T15:17:50.266Z,2.66
2022-12-05T15:20:27.720Z,2.64
2022-12-05T15:22:55.680Z,2.60
2022-12-05T15:25:32.935Z,2.60
2022-12-05T15:28:06.275Z,2.68
2022-12-05T15:30:39.875Z,2.65
2022-12-05T15:33:13.044Z,2.65
2022-12-05T15:35:41.651Z,2.67
2022-12-05T15:38:27.069Z,2.76
2022-12-05T15:40:56.054Z,2.77
2022-12-05T15:43:32.643Z,2.83
2022-12-05T15:46:30.613Z,2.86
2022-12-05T15:49:00.692Z,2.81
2022-12-05T15:51:36.972Z,2.80
2022-12-05T15:54:11.887Z,2.76
2022-12-05T15:56:48.968Z,2.75
2022-12-05T15:59:29.131Z,2.69
2022-12-05T16:02:04.798Z,2.62
2022-12-05T16:04:48.711Z,2.62
2022-12-05T16:07:16.995Z,2.58
2022-12-05T16:09:46.595Z,2.63
2022-12-05T16:12:31.013Z,2.65
2022-12-05T16:15:05.073Z,2.61
2022-12-05T16:17:53.616Z,2.63
2022-12-05T16:20:25.422Z,2.70
2022-12-05T16:22:56.667Z,2.76
2022-12-05T16:25:37.091Z,2.78
2022-12-05T16:28:07.922Z,2.74
2022-12-05T16:30:37.907Z,2.74
2022-12-05T16:33:14.006Z,2.82
2022-12-05T16:35:43.349Z,2.82
2022-12-05T16:38:17.518Z,2.82
2022-12-05T16:40:45.342Z,2.78
2022-12-05T16:43:32.433Z,2.74
2022-12-05T16:46:15.766Z,2.67
2022-12-05T16:48:49.587Z,2.69
2022-12-05T16:51:26.077Z,2.68
2022-12-05T16:53:56.231Z,2.76
2022-12-05T16:56:31.758Z,2.74
2022-12-05T16:59:05.018Z,2.78
2022-12-05T17:01:38.727Z,2.79
2022-12-05T17:04:11.463Z,2.83
2022-12-05T17:06:39.485Z,2.84
2022-12-05T17:09:07.557Z,2.82
2022-12-05T17:11:40.475Z,2.79
2022-12-05T17:14:13.919Z,2.85
2022-12-05T17:16:43.672Z,2.87
2022-12-05T17:19:12.694Z,2.96
2022-12-05T17:21:42.216Z,3.02
2022-12-05T17:24:17.343Z,3.04
2022-12-05T17:26:46.490Z,2.94
2022-12-05T17:29:14.509Z,2.88
2022-12-05T17:31:42.582Z,2.87
2022-12-05T17:34:16.501Z,2.84
2022-12-05T17:36:45.595Z,2.87
2022-12-05T17:39:13.608Z,2.86
2022-12-05T17:42:16.345Z,2.93
2022-12-05T17:44:44.406Z,2.99
2022-12-05T17:47:12.312Z,2.99
2022-12-05T17:49:40.130Z,2.95
2022-12-05T17:52:21.345Z,2.94
2022-12-05T17:54:50.733Z,2.93
2022-12-05T17:57:18.922Z,2.89
2022-12-05T17:59:46.982Z,2.86
2022-12-05T18:02:15.799Z,2.88
2022-12-05T18:04:43.786Z,2.91
2022-12-05T18:07:12.138Z,2.90
2022-12-05T18:09:40.084Z,2.87
2022-12-05T18:12:08.264Z,2.91
2022-12-05T18:14:36.148Z,2.99
2022-12-05T18:17:04.733Z,3.02
2022-12-05T18:19:32.686Z,3.03
2022-12-05T18:22:00.748Z,3.03
2022-12-05T18:24:28.681Z,2.99
2022-12-05T18:26:56.508Z,2.96
2022-12-05T18:29:24.768Z,2.92
2022-12-05T18:31:52.916Z,2.90
2022-12-05T18:34:21.223Z,2.88
2022-12-05T18:36:49.394Z,2.90
2022-12-05T18:39:17.443Z,2.92
2022-12-05T18:41:45.432Z,2.94
2022-12-05T18:44:13.355Z,2.95
2022-12-05T18:46:41.174Z,2.96
2022-12-05T18:49:12.657Z,2.98
2022-12-05T18:51:40.898Z,3.00
2022-12-05T18:54:09.020Z,2.97
2022-12-05T18:56:40.157Z,3.00
2022-12-05T18:59:13.261Z,3.04
2022-12-05T19:01:42.377Z,3.09
2022-12-05T19:04:12.509Z,3.12
2022-12-05T19:06:43.318Z,3.15
2022-12-05T19:09:15.480Z,3.18
2022-12-05T19:11:47.503Z,3.21
2022-12-05T19:14:18.987Z,3.23
2022-12-05T19:16:53.709Z,3.24
2022-12-05T19:19:26.256Z,3.21
2022-12-05T19:21:55.202Z,3.21
2022-12-05T19:24:23.184Z,3.17
2022-12-05T19:26:51.295Z,3.13
2022-12-05T19:29:19.466Z,3.14
2022-12-05T19:31:47.478Z,3.17
2022-12-05T19:34:15.720Z,3.16
2022-12-05T19:36:46.156Z,3.15
2022-12-05T19:39:23.770Z,3.15
2022-12-05T19:41:52.635Z,3.13
2022-12-05T19:44:21.622Z,3.14
2022-12-05T19:46:50.365Z,3.16
2022-12-05T19:49:19.398Z,3.16
2022-12-05T19:51:48.801Z,3.17
2022-12-05T19:54:20.970Z,3.21
2022-12-05T19:56:49.062Z,3.23
2022-12-05T19:59:17.564Z,3.22
2022-12-05T20:01:45.756Z,3.23
2022-12-05T20:04:16.236Z,3.22
2022-12-05T20:06:47.054Z,3.22
2022-12-05T20:09:18.557Z,3.22
2022-12-05T20:11:54.128Z,3.22
2022-12-05T20:14:25.876Z,3.21
2022-12-05T20:16:54.746Z,3.22
2022-12-05T20:19:24.037Z,3.23
2022-12-05T20:21:52.201Z,3.27
2022-12-05T20:24:20.476Z,3.30
2022-12-05T20:26:48.261Z,3.34
2022-12-05T20:29:16.519Z,3.33
2022-12-05T20:31:44.589Z,3.27
2022-12-05T20:34:14.911Z,3.25
2022-12-05T20:36:43.813Z,3.20
2022-12-05T20:39:17.262Z,3.22
2022-12-05T20:41:45.879Z,3.20
2022-12-05T20:44:16.136Z,3.19
2022-12-05T20:46:44.906Z,3.24
2022-12-05T20:49:14.004Z,3.31
2022-12-05T20:51:44.474Z,3.33
2022-12-05T20:54:16.912Z,3.27
2022-12-05T20:56:45.668Z,3.22
2022-12-05T20:59:14.269Z,3.21
2022-12-05T21:01:42.689Z,3.27
2022-12-05T21:04:12.462Z,3.31
2022-12-05T21:06:43.092Z,3.37
2022-12-05T21:09:16.130Z,3.37
2022-12-05T21:11:45.389Z,3.37
2022-12-05T21:14:13.455Z,3.36
2022-12-05T21:16:41.430Z,3.41
2022-12-05T21:19:09.928Z,3.47
2022-12-05T21:21:38.388Z,3.49
2022-12-05T21:24:07.084Z,3.53
2022-12-05T21:26:35.456Z,3.51
2022-12-05T21:29:05.886Z,3.52
2022-12-05T21:31:37.541Z,3.48
2022-12-05T21:34:12.662Z,3.46
2022-12-05T21:36:41.160Z,3.46
2022-12-05T21:39:09.131Z,3.40
2022-12-05T21:41:37.028Z,3.39
2022-12-05T21:44:05.177Z,3.40
2022-12-05T21:46:33.726Z,3.41
2022-12-05T21:49:01.834Z,3.38
2022-12-05T21:51:29.700Z,3.36
2022-12-05T21:53:57.772Z,3.37
2022-12-05T21:56:25.750Z,3.45
2022-12-05T21:58:54.230Z,3.44
2022-12-05T22:01:25.394Z,3.46
2022-12-05T22:03:59.732Z,3.47
2022-12-05T22:06:28.617Z,3.46
2022-12-05T22:08:56.549Z,3.43
2022-12-05T22:11:25.129Z,3.40
2022-12-05T22:13:53.383Z,3.41
2022-12-05T22:16:21.850Z,3.42
2022-12-05T22:18:49.966Z,3.45
2022-12-05T22:21:20.698Z,3.48
2022-12-05T22:23:49.520Z,3.51
2022-12-05T22:26:20.380Z,3.50
2022-12-05T22:28:54.112Z,3.49
2022-12-05T22:31:23.421Z,3.53
2022-12-05T22:33:51.587Z,3.56
2022-12-05T22:36:20.393Z,3.63
2022-12-05T22:38:48.982Z,3.68
2022-12-05T22:41:20.939Z,3.67
2022-12-05T22:43:54.754Z,3.63
2022-12-05T22:46:23.393Z,3.62
2022-12-05T22:48:52.316Z,3.62
2022-12-05T22:51:22.180Z,3.64
2022-12-05T22:53:51.951Z,3.65
2022-12-05T22:56:21.764Z,3.68
2022-12-05T22:58:54.992Z,3.71
2022-12-05T23:01:26.478Z,3.74
2022-12-05T23:04:00.196Z,3.76
2022-12-05T23:06:29.767Z,3.79
2022-12-05T23:08:58.608Z,3.80
2022-12-05T23:11:27.386Z,3.75
2022-12-05T23:14:02.266Z,3.77
2022-12-05T23:16:32.257Z,3.80
2022-12-05T23:19:03.189Z,3.81
2022-12-05T23:21:36.388Z,3.83
2022-12-05T23:24:07.458Z,3.82
2022-12-05T23:26:38.885Z,3.79
2022-12-05T23:29:07.568Z,3.77
2022-12-05T23:31:35.578Z,3.75
2022-12-05T23:34:04.403Z,3.76
2022-12-05T23:36:34.346Z,3.74
2022-12-05T23:39:03.706Z,3.81
2022-12-05T23:41:32.144Z,3.82
2022-12-05T23:44:00.298Z,3.86
2022-12-05T23:46:28.948Z,3.93
2022-12-05T23:48:58.258Z,3.98
2022-12-05T23:51:29.298Z,4.00
2022-12-05T23:53:59.690Z,3.96
2022-12-05T23:56:30.665Z,3.88
2022-12-05T23:58:59.222Z,3.78
